sensor_id;sensor_type;location;lat;lon;timestamp;temperature;humidity
80706;DHT22;70229;48.010;7.852;2024-02-21T00:00:45;7.50;99.90
80706;DHT22;70229;48.010;7.852;2024-02-21T00:03:11;6.80;99.90
80706;DHT22;70229;48.010;7.852;2024-02-21T00:05:37;6.80;99.90
80706;DHT22;70229;48.010;7.852;2024-02-21T00:08:02;7.40;99.90
80706;DHT22;70229;48.010;7.852;2024-02-21T00:10:31;6.80;99.90
80706;DHT22;70229;48.010;7.852;2024-02-21T00:13:00;6.80;99.90
80706;DHT22;70229;48.010;7.852;2024-02-21T00:15:26;6.80;99.90
80706;DHT22;70229;48.010;7.852;2024-02-21T00:17:52;6.80;99.90
80706;DHT22;70229;48.010;7.852;2024-02-21T00:20:17;6.80;99.90
80706;DHT22;70229;48.010;7.852;2024-02-21T00:22:43;6.70;99.90
80706;DHT22;70229;48.010;7.852;2024-02-21T00:25:09;6.70;99.90
80706;DHT22;70229;48.010;7.852;2024-02-21T00:27:35;6.70;99.90
80706;DHT22;70229;48.010;7.852;2024-02-21T00:30:01;6.60;99.90
80706;DHT22;70229;48.010;7.852;2024-02-21T00:32:27;6.70;99.90
80706;DHT22;70229;48.010;7.852;2024-02-21T00:34:52;6.70;99.90
80706;DHT22;70229;48.010;7.852;2024-02-21T00:37:18;7.30;99.90
80706;DHT22;70229;48.010;7.852;2024-02-21T00:39:43;7.30;99.90
80706;DHT22;70229;48.010;7.852;2024-02-21T00:42:09;6.70;99.90
80706;DHT22;70229;48.010;7.852;2024-02-21T00:44:34;7.60;99.90
80706;DHT22;70229;48.010;7.852;2024-02-21T00:47:00;6.70;99.90
80706;DHT22;70229;48.010;7.852;2024-02-21T00:49:25;6.80;99.90
80706;DHT22;70229;48.010;7.852;2024-02-21T00:51:51;6.80;99.90
80706;DHT22;70229;48.010;7.852;2024-02-21T00:54:17;6.80;99.90
80706;DHT22;70229;48.010;7.852;2024-02-21T00:56:42;6.80;99.90
80706;DHT22;70229;48.010;7.852;2024-02-21T00:59:08;6.90;99.90
80706;DHT22;70229;48.010;7.852;2024-02-21T01:01:34;6.70;99.90
80706;DHT22;70229;48.010;7.852;2024-02-21T01:03:59;6.80;99.90
80706;DHT22;70229;48.010;7.852;2024-02-21T01:06:25;6.90;99.90
80706;DHT22;70229;48.010;7.852;2024-02-21T01:08:51;6.90;99.90
80706;DHT22;70229;48.010;7.852;2024-02-21T01:11:17;6.90;99.90
80706;DHT22;70229;48.010;7.852;2024-02-21T01:13:43;6.90;99.90
80706;DHT22;70229;48.010;7.852;2024-02-21T01:16:09;6.90;99.90
80706;DHT22;70229;48.010;7.852;2024-02-21T01:18:37;6.90;99.90
80706;DHT22;70229;48.010;7.852;2024-02-21T01:21:03;8.20;99.90
80706;DHT22;70229;48.010;7.852;2024-02-21T01:23:32;6.90;99.90
80706;DHT22;70229;48.010;7.852;2024-02-21T01:25:58;6.90;99.90
80706;DHT22;70229;48.010;7.852;2024-02-21T01:28:23;7.90;99.90
80706;DHT22;70229;48.010;7.852;2024-02-21T01:30:49;6.90;99.90
80706;DHT22;70229;48.010;7.852;2024-02-21T01:33:14;8.20;99.90
80706;DHT22;70229;48.010;7.852;2024-02-21T01:35:40;8.70;99.90
80706;DHT22;70229;48.010;7.852;2024-02-21T01:38:06;7.00;99.90
80706;DHT22;70229;48.010;7.852;2024-02-21T01:40:31;7.30;99.90
80706;DHT22;70229;48.010;7.852;2024-02-21T01:42:57;6.80;99.90
80706;DHT22;70229;48.010;7.852;2024-02-21T01:45:22;7.00;99.90
80706;DHT22;70229;48.010;7.852;2024-02-21T01:47:49;7.00;99.90
80706;DHT22;70229;48.010;7.852;2024-02-21T01:50:15;7.10;99.90
80706;DHT22;70229;48.010;7.852;2024-02-21T01:52:43;7.70;99.90
80706;DHT22;70229;48.010;7.852;2024-02-21T01:55:12;8.20;99.90
80706;DHT22;70229;48.010;7.852;2024-02-21T01:57:42;7.40;99.90
80706;DHT22;70229;48.010;7.852;2024-02-21T02:00:09;7.20;99.90
80706;DHT22;70229;48.010;7.852;2024-02-21T02:02:36;7.20;99.90
80706;DHT22;70229;48.010;7.852;2024-02-21T02:05:03;7.20;99.90
80706;DHT22;70229;48.010;7.852;2024-02-21T02:07:29;7.20;99.90
80706;DHT22;70229;48.010;7.852;2024-02-21T02:09:54;7.30;99.90
80706;DHT22;70229;48.010;7.852;2024-02-21T02:12:20;8.50;99.90
80706;DHT22;70229;48.010;7.852;2024-02-21T02:14:46;7.40;99.90
80706;DHT22;70229;48.010;7.852;2024-02-21T02:17:11;7.40;99.90
80706;DHT22;70229;48.010;7.852;2024-02-21T02:19:37;7.40;99.90
80706;DHT22;70229;48.010;7.852;2024-02-21T02:22:10;7.40;99.90
80706;DHT22;70229;48.010;7.852;2024-02-21T02:24:38;8.90;99.90
80706;DHT22;70229;48.010;7.852;2024-02-21T02:27:04;7.40;99.90
80706;DHT22;70229;48.010;7.852;2024-02-21T02:29:32;7.50;99.90
80706;DHT22;70229;48.010;7.852;2024-02-21T02:31:57;7.50;99.90
80706;DHT22;70229;48.010;7.852;2024-02-21T02:34:23;8.50;99.90
80706;DHT22;70229;48.010;7.852;2024-02-21T02:36:48;7.50;99.90
80706;DHT22;70229;48.010;7.852;2024-02-21T02:39:14;7.60;99.90
80706;DHT22;70229;48.010;7.852;2024-02-21T02:41:40;7.60;99.90
80706;DHT22;70229;48.010;7.852;2024-02-21T02:44:05;7.60;99.90
80706;DHT22;70229;48.010;7.852;2024-02-21T02:46:31;7.60;99.90
80706;DHT22;70229;48.010;7.852;2024-02-21T02:48:57;7.60;99.90
80706;DHT22;70229;48.010;7.852;2024-02-21T02:51:22;8.90;99.90
80706;DHT22;70229;48.010;7.852;2024-02-21T02:53:48;8.50;99.90
80706;DHT22;70229;48.010;7.852;2024-02-21T02:56:14;7.80;99.90
80706;DHT22;70229;48.010;7.852;2024-02-21T02:58:42;8.70;99.90
80706;DHT22;70229;48.010;7.852;2024-02-21T03:01:08;8.00;99.90
80706;DHT22;70229;48.010;7.852;2024-02-21T03:03:33;8.10;99.90
80706;DHT22;70229;48.010;7.852;2024-02-21T03:05:59;9.00;99.90
80706;DHT22;70229;48.010;7.852;2024-02-21T03:08:24;7.60;99.90
80706;DHT22;70229;48.010;7.852;2024-02-21T03:10:50;8.60;99.90
80706;DHT22;70229;48.010;7.852;2024-02-21T03:13:16;7.60;99.90
80706;DHT22;70229;48.010;7.852;2024-02-21T03:15:42;8.10;99.90
80706;DHT22;70229;48.010;7.852;2024-02-21T03:18:07;7.50;99.90
80706;DHT22;70229;48.010;7.852;2024-02-21T03:20:33;7.80;99.90
80706;DHT22;70229;48.010;7.852;2024-02-21T03:22:59;7.50;99.90
80706;DHT22;70229;48.010;7.852;2024-02-21T03:25:24;8.10;99.90
80706;DHT22;70229;48.010;7.852;2024-02-21T03:27:50;7.70;99.90
80706;DHT22;70229;48.010;7.852;2024-02-21T03:30:17;7.40;99.90
80706;DHT22;70229;48.010;7.852;2024-02-21T03:32:42;7.30;99.90
80706;DHT22;70229;48.010;7.852;2024-02-21T03:35:08;8.20;99.90
80706;DHT22;70229;48.010;7.852;2024-02-21T03:37:34;8.00;99.90
80706;DHT22;70229;48.010;7.852;2024-02-21T03:39:59;7.00;99.90
80706;DHT22;70229;48.010;7.852;2024-02-21T03:42:25;7.10;99.90
80706;DHT22;70229;48.010;7.852;2024-02-21T03:44:50;7.70;99.90
80706;DHT22;70229;48.010;7.852;2024-02-21T03:47:16;7.10;99.90
80706;DHT22;70229;48.010;7.852;2024-02-21T03:49:42;7.00;99.90
80706;DHT22;70229;48.010;7.852;2024-02-21T03:52:07;7.70;99.90
80706;DHT22;70229;48.010;7.852;2024-02-21T03:54:34;7.40;99.90
80706;DHT22;70229;48.010;7.852;2024-02-21T03:57:00;7.70;99.90
80706;DHT22;70229;48.010;7.852;2024-02-21T03:59:25;6.90;99.90
80706;DHT22;70229;48.010;7.852;2024-02-21T04:01:54;6.90;99.90
80706;DHT22;70229;48.010;7.852;2024-02-21T04:04:20;8.00;99.90
80706;DHT22;70229;48.010;7.852;2024-02-21T04:06:49;7.90;99.90
80706;DHT22;70229;48.010;7.852;2024-02-21T04:09:15;6.90;99.90
80706;DHT22;70229;48.010;7.852;2024-02-21T04:11:41;7.00;99.90
80706;DHT22;70229;48.010;7.852;2024-02-21T04:14:07;7.30;99.90
80706;DHT22;70229;48.010;7.852;2024-02-21T04:16:33;8.00;99.90
80706;DHT22;70229;48.010;7.852;2024-02-21T04:18:58;8.20;99.90
80706;DHT22;70229;48.010;7.852;2024-02-21T04:21:24;6.80;99.90
80706;DHT22;70229;48.010;7.852;2024-02-21T04:23:50;7.40;99.90
80706;DHT22;70229;48.010;7.852;2024-02-21T04:26:15;6.70;99.90
80706;DHT22;70229;48.010;7.852;2024-02-21T04:28:41;7.80;99.90
80706;DHT22;70229;48.010;7.852;2024-02-21T04:31:06;7.50;99.90
80706;DHT22;70229;48.010;7.852;2024-02-21T04:33:32;7.80;99.90
80706;DHT22;70229;48.010;7.852;2024-02-21T04:35:58;7.70;99.90
80706;DHT22;70229;48.010;7.852;2024-02-21T04:38:24;7.50;99.90
80706;DHT22;70229;48.010;7.852;2024-02-21T04:40:50;6.90;99.90
80706;DHT22;70229;48.010;7.852;2024-02-21T04:43:16;6.90;99.90
80706;DHT22;70229;48.010;7.852;2024-02-21T04:45:41;6.80;99.90
80706;DHT22;70229;48.010;7.852;2024-02-21T04:48:07;7.90;99.90
80706;DHT22;70229;48.010;7.852;2024-02-21T04:50:33;6.90;99.90
80706;DHT22;70229;48.010;7.852;2024-02-21T04:52:58;6.90;99.90
80706;DHT22;70229;48.010;7.852;2024-02-21T04:55:24;7.00;99.90
80706;DHT22;70229;48.010;7.852;2024-02-21T04:57:49;8.00;99.90
80706;DHT22;70229;48.010;7.852;2024-02-21T05:00:15;7.60;99.90
80706;DHT22;70229;48.010;7.852;2024-02-21T05:02:41;6.70;99.90
80706;DHT22;70229;48.010;7.852;2024-02-21T05:05:07;7.20;99.90
80706;DHT22;70229;48.010;7.852;2024-02-21T05:07:32;6.50;99.90
80706;DHT22;70229;48.010;7.852;2024-02-21T05:10:00;7.20;99.90
80706;DHT22;70229;48.010;7.852;2024-02-21T05:12:26;7.50;99.90
80706;DHT22;70229;48.010;7.852;2024-02-21T05:14:51;6.90;99.90
80706;DHT22;70229;48.010;7.852;2024-02-21T05:17:17;6.30;99.90
80706;DHT22;70229;48.010;7.852;2024-02-21T05:19:42;6.30;99.90
80706;DHT22;70229;48.010;7.852;2024-02-21T05:22:08;6.90;99.90
80706;DHT22;70229;48.010;7.852;2024-02-21T05:24:34;7.70;99.90
80706;DHT22;70229;48.010;7.852;2024-02-21T05:27:00;7.80;99.90
80706;DHT22;70229;48.010;7.852;2024-02-21T05:29:26;6.30;99.90
80706;DHT22;70229;48.010;7.852;2024-02-21T05:34:18;6.30;99.90
80706;DHT22;70229;48.010;7.852;2024-02-21T05:36:54;6.30;99.90
80706;DHT22;70229;48.010;7.852;2024-02-21T05:39:34;6.40;99.90
80706;DHT22;70229;48.010;7.852;2024-02-21T05:42:09;6.30;99.90
80706;DHT22;70229;48.010;7.852;2024-02-21T05:44:43;6.30;99.90
80706;DHT22;70229;48.010;7.852;2024-02-21T05:47:36;7.70;99.90
80706;DHT22;70229;48.010;7.852;2024-02-21T05:50:52;6.40;99.90
80706;DHT22;70229;48.010;7.852;2024-02-21T05:57:08;6.50;99.90
80706;DHT22;70229;48.010;7.852;2024-02-21T05:59:40;6.40;99.90
80706;DHT22;70229;48.010;7.852;2024-02-21T06:02:17;6.40;99.90
80706;DHT22;70229;48.010;7.852;2024-02-21T06:04:43;6.50;99.90
80706;DHT22;70229;48.010;7.852;2024-02-21T06:07:09;6.50;99.90
80706;DHT22;70229;48.010;7.852;2024-02-21T06:09:35;6.50;99.90
80706;DHT22;70229;48.010;7.852;2024-02-21T06:12:01;6.50;99.90
80706;DHT22;70229;48.010;7.852;2024-02-21T06:14:27;6.50;99.90
80706;DHT22;70229;48.010;7.852;2024-02-21T06:16:52;6.60;99.90
80706;DHT22;70229;48.010;7.852;2024-02-21T06:19:18;6.50;99.90
80706;DHT22;70229;48.010;7.852;2024-02-21T06:21:43;7.70;99.90
80706;DHT22;70229;48.010;7.852;2024-02-21T06:24:09;6.50;99.90
80706;DHT22;70229;48.010;7.852;2024-02-21T06:26:35;6.70;99.90
80706;DHT22;70229;48.010;7.852;2024-02-21T06:29:00;6.40;99.90
80706;DHT22;70229;48.010;7.852;2024-02-21T06:31:27;7.50;99.90
80706;DHT22;70229;48.010;7.852;2024-02-21T06:33:53;6.40;99.90
80706;DHT22;70229;48.010;7.852;2024-02-21T06:36:18;6.30;99.90
80706;DHT22;70229;48.010;7.852;2024-02-21T06:38:44;7.20;99.90
80706;DHT22;70229;48.010;7.852;2024-02-21T06:41:17;7.50;99.90
80706;DHT22;70229;48.010;7.852;2024-02-21T06:43:47;6.80;99.90
80706;DHT22;70229;48.010;7.852;2024-02-21T06:46:25;6.30;99.90
80706;DHT22;70229;48.010;7.852;2024-02-21T06:48:51;6.20;99.90
80706;DHT22;70229;48.010;7.852;2024-02-21T06:51:16;6.30;99.90
80706;DHT22;70229;48.010;7.852;2024-02-21T06:53:42;6.30;99.90
80706;DHT22;70229;48.010;7.852;2024-02-21T06:56:09;7.60;99.90
80706;DHT22;70229;48.010;7.852;2024-02-21T06:58:35;6.80;99.90
80706;DHT22;70229;48.010;7.852;2024-02-21T07:01:01;6.10;99.90
80706;DHT22;70229;48.010;7.852;2024-02-21T07:03:27;6.00;99.90
80706;DHT22;70229;48.010;7.852;2024-02-21T07:05:53;7.30;99.90
80706;DHT22;70229;48.010;7.852;2024-02-21T07:08:27;7.40;99.90
80706;DHT22;70229;48.010;7.852;2024-02-21T07:13:29;6.10;99.90
80706;DHT22;70229;48.010;7.852;2024-02-21T07:15:54;6.20;99.90
80706;DHT22;70229;48.010;7.852;2024-02-21T07:18:20;6.30;99.90
80706;DHT22;70229;48.010;7.852;2024-02-21T07:20:46;6.40;99.90
80706;DHT22;70229;48.010;7.852;2024-02-21T07:23:11;6.50;99.90
80706;DHT22;70229;48.010;7.852;2024-02-21T07:25:37;6.50;99.90
80706;DHT22;70229;48.010;7.852;2024-02-21T07:28:03;6.60;99.90
80706;DHT22;70229;48.010;7.852;2024-02-21T07:30:29;6.60;99.90
80706;DHT22;70229;48.010;7.852;2024-02-21T07:32:55;6.70;99.90
80706;DHT22;70229;48.010;7.852;2024-02-21T07:35:20;6.80;99.90
80706;DHT22;70229;48.010;7.852;2024-02-21T07:37:46;6.90;99.90
80706;DHT22;70229;48.010;7.852;2024-02-21T07:40:16;7.00;99.90
80706;DHT22;70229;48.010;7.852;2024-02-21T07:42:41;7.00;99.90
80706;DHT22;70229;48.010;7.852;2024-02-21T07:45:08;7.10;99.90
80706;DHT22;70229;48.010;7.852;2024-02-21T07:47:35;7.10;99.90
80706;DHT22;70229;48.010;7.852;2024-02-21T07:50:02;7.00;99.90
80706;DHT22;70229;48.010;7.852;2024-02-21T07:52:27;7.10;99.90
80706;DHT22;70229;48.010;7.852;2024-02-21T07:54:53;6.90;99.90
80706;DHT22;70229;48.010;7.852;2024-02-21T07:57:19;6.80;99.90
80706;DHT22;70229;48.010;7.852;2024-02-21T07:59:45;6.80;99.90
80706;DHT22;70229;48.010;7.852;2024-02-21T08:02:15;6.70;99.90
80706;DHT22;70229;48.010;7.852;2024-02-21T08:04:41;6.80;99.90
80706;DHT22;70229;48.010;7.852;2024-02-21T08:07:06;6.50;99.90
80706;DHT22;70229;48.010;7.852;2024-02-21T08:09:32;6.50;99.90
80706;DHT22;70229;48.010;7.852;2024-02-21T08:11:58;6.60;99.90
80706;DHT22;70229;48.010;7.852;2024-02-21T08:14:23;6.50;99.90
80706;DHT22;70229;48.010;7.852;2024-02-21T08:16:50;6.60;99.90
80706;DHT22;70229;48.010;7.852;2024-02-21T08:19:18;6.80;99.90
80706;DHT22;70229;48.010;7.852;2024-02-21T08:21:44;6.80;99.90
80706;DHT22;70229;48.010;7.852;2024-02-21T08:24:12;6.90;99.90
80706;DHT22;70229;48.010;7.852;2024-02-21T08:26:40;7.00;99.90
80706;DHT22;70229;48.010;7.852;2024-02-21T08:29:06;7.00;99.90
80706;DHT22;70229;48.010;7.852;2024-02-21T08:31:31;7.00;99.90
80706;DHT22;70229;48.010;7.852;2024-02-21T08:34:01;7.10;99.90
80706;DHT22;70229;48.010;7.852;2024-02-21T08:36:30;7.10;99.90
80706;DHT22;70229;48.010;7.852;2024-02-21T08:38:56;7.20;99.90
80706;DHT22;70229;48.010;7.852;2024-02-21T08:41:25;7.30;99.90
80706;DHT22;70229;48.010;7.852;2024-02-21T08:43:52;7.40;99.90
80706;DHT22;70229;48.010;7.852;2024-02-21T08:46:17;7.40;99.90
80706;DHT22;70229;48.010;7.852;2024-02-21T08:48:43;7.50;99.90
80706;DHT22;70229;48.010;7.852;2024-02-21T08:51:12;7.60;99.90
80706;DHT22;70229;48.010;7.852;2024-02-21T08:53:37;7.80;99.90
80706;DHT22;70229;48.010;7.852;2024-02-21T08:56:04;7.80;99.90
80706;DHT22;70229;48.010;7.852;2024-02-21T08:58:29;7.90;99.90
80706;DHT22;70229;48.010;7.852;2024-02-21T09:00:55;8.40;99.90
80706;DHT22;70229;48.010;7.852;2024-02-21T09:03:20;8.10;99.90
80706;DHT22;70229;48.010;7.852;2024-02-21T09:05:46;8.20;99.90
80706;DHT22;70229;48.010;7.852;2024-02-21T09:08:12;8.30;99.90
80706;DHT22;70229;48.010;7.852;2024-02-21T09:10:39;8.20;99.90
80706;DHT22;70229;48.010;7.852;2024-02-21T09:13:04;8.80;99.90
80706;DHT22;70229;48.010;7.852;2024-02-21T09:15:31;8.40;99.90
80706;DHT22;70229;48.010;7.852;2024-02-21T09:17:57;8.50;99.90
80706;DHT22;70229;48.010;7.852;2024-02-21T09:20:22;9.20;99.90
80706;DHT22;70229;48.010;7.852;2024-02-21T09:22:48;8.80;99.90
80706;DHT22;70229;48.010;7.852;2024-02-21T09:25:14;9.10;99.90
80706;DHT22;70229;48.010;7.852;2024-02-21T09:27:39;8.90;99.90
80706;DHT22;70229;48.010;7.852;2024-02-21T09:30:06;8.90;99.90
80706;DHT22;70229;48.010;7.852;2024-02-21T09:32:32;9.10;99.90
80706;DHT22;70229;48.010;7.852;2024-02-21T09:35:00;9.20;99.90
80706;DHT22;70229;48.010;7.852;2024-02-21T09:37:26;9.30;99.90
80706;DHT22;70229;48.010;7.852;2024-02-21T09:39:51;9.90;99.90
80706;DHT22;70229;48.010;7.852;2024-02-21T09:42:20;9.40;99.90
80706;DHT22;70229;48.010;7.852;2024-02-21T09:44:47;9.50;99.90
80706;DHT22;70229;48.010;7.852;2024-02-21T09:49:43;9.70;99.90
80706;DHT22;70229;48.010;7.852;2024-02-21T09:52:10;9.70;99.90
80706;DHT22;70229;48.010;7.852;2024-02-21T09:54:39;9.80;99.90
80706;DHT22;70229;48.010;7.852;2024-02-21T09:57:08;9.80;99.90
80706;DHT22;70229;48.010;7.852;2024-02-21T09:59:33;10.00;99.90
80706;DHT22;70229;48.010;7.852;2024-02-21T10:01:59;10.10;99.90
80706;DHT22;70229;48.010;7.852;2024-02-21T10:04:26;10.20;99.90
80706;DHT22;70229;48.010;7.852;2024-02-21T10:06:52;10.00;99.90
80706;DHT22;70229;48.010;7.852;2024-02-21T10:09:24;10.10;99.90
80706;DHT22;70229;48.010;7.852;2024-02-21T10:11:53;10.30;99.90
80706;DHT22;70229;48.010;7.852;2024-02-21T10:14:19;10.40;99.90
80706;DHT22;70229;48.010;7.852;2024-02-21T10:16:48;10.50;99.90
80706;DHT22;70229;48.010;7.852;2024-02-21T10:19:19;10.70;99.90
80706;DHT22;70229;48.010;7.852;2024-02-21T10:21:57;10.90;99.90
80706;DHT22;70229;48.010;7.852;2024-02-21T10:24:29;11.00;99.90
80706;DHT22;70229;48.010;7.852;2024-02-21T10:27:08;11.00;99.90
80706;DHT22;70229;48.010;7.852;2024-02-21T10:29:35;11.10;99.90
80706;DHT22;70229;48.010;7.852;2024-02-21T10:32:07;11.20;99.90
80706;DHT22;70229;48.010;7.852;2024-02-21T10:34:34;11.30;99.90
80706;DHT22;70229;48.010;7.852;2024-02-21T10:37:04;11.40;99.90
80706;DHT22;70229;48.010;7.852;2024-02-21T10:39:35;11.40;99.90
80706;DHT22;70229;48.010;7.852;2024-02-21T10:42:02;11.50;99.90
80706;DHT22;70229;48.010;7.852;2024-02-21T10:44:30;11.40;99.90
80706;DHT22;70229;48.010;7.852;2024-02-21T10:46:57;11.60;99.90
80706;DHT22;70229;48.010;7.852;2024-02-21T10:49:24;11.80;99.90
80706;DHT22;70229;48.010;7.852;2024-02-21T10:52:03;11.80;99.90
80706;DHT22;70229;48.010;7.852;2024-02-21T10:54:43;11.90;99.90
80706;DHT22;70229;48.010;7.852;2024-02-21T10:57:10;12.10;99.90
80706;DHT22;70229;48.010;7.852;2024-02-21T10:59:39;12.20;99.90
80706;DHT22;70229;48.010;7.852;2024-02-21T11:02:05;12.30;99.90
80706;DHT22;70229;48.010;7.852;2024-02-21T11:04:32;13.10;99.90
80706;DHT22;70229;48.010;7.852;2024-02-21T11:07:02;12.50;99.90
80706;DHT22;70229;48.010;7.852;2024-02-21T11:09:33;12.40;99.90
80706;DHT22;70229;48.010;7.852;2024-02-21T11:12:02;12.60;99.90
80706;DHT22;70229;48.010;7.852;2024-02-21T11:14:29;12.80;99.90
80706;DHT22;70229;48.010;7.852;2024-02-21T11:16:58;12.80;99.90
80706;DHT22;70229;48.010;7.852;2024-02-21T11:19:25;12.80;99.50
80706;DHT22;70229;48.010;7.852;2024-02-21T11:21:52;12.90;99.40
80706;DHT22;70229;48.010;7.852;2024-02-21T11:26:53;13.20;99.30
80706;DHT22;70229;48.010;7.852;2024-02-21T11:29:26;13.70;99.90
80706;DHT22;70229;48.010;7.852;2024-02-21T11:31:52;13.10;99.50
80706;DHT22;70229;48.010;7.852;2024-02-21T11:34:18;13.10;99.90
80706;DHT22;70229;48.010;7.852;2024-02-21T11:39:22;13.00;99.90
80706;DHT22;70229;48.010;7.852;2024-02-21T11:42:06;13.00;99.90
80706;DHT22;70229;48.010;7.852;2024-02-21T11:44:36;13.00;99.90
80706;DHT22;70229;48.010;7.852;2024-02-21T11:47:08;13.00;99.90
80706;DHT22;70229;48.010;7.852;2024-02-21T11:49:38;12.90;99.90
80706;DHT22;70229;48.010;7.852;2024-02-21T11:52:07;12.70;99.90
80706;DHT22;70229;48.010;7.852;2024-02-21T11:54:33;12.80;99.90
80706;DHT22;70229;48.010;7.852;2024-02-21T11:57:02;12.80;99.90
80706;DHT22;70229;48.010;7.852;2024-02-21T11:59:32;12.80;99.90
80706;DHT22;70229;48.010;7.852;2024-02-21T12:02:02;12.90;99.90
80706;DHT22;70229;48.010;7.852;2024-02-21T12:04:29;12.90;99.90
80706;DHT22;70229;48.010;7.852;2024-02-21T12:06:56;12.90;99.90
80706;DHT22;70229;48.010;7.852;2024-02-21T12:09:23;12.80;99.90
80706;DHT22;70229;48.010;7.852;2024-02-21T12:11:58;12.90;99.90
80706;DHT22;70229;48.010;7.852;2024-02-21T12:14:24;12.80;99.90
80706;DHT22;70229;48.010;7.852;2024-02-21T12:16:50;12.90;99.90
80706;DHT22;70229;48.010;7.852;2024-02-21T12:19:17;12.80;98.80
80706;DHT22;70229;48.010;7.852;2024-02-21T12:21:42;12.90;99.90
80706;DHT22;70229;48.010;7.852;2024-02-21T12:24:17;13.10;98.00
80706;DHT22;70229;48.010;7.852;2024-02-21T12:26:43;13.10;95.20
80706;DHT22;70229;48.010;7.852;2024-02-21T12:29:09;13.20;93.00
80706;DHT22;70229;48.010;7.852;2024-02-21T12:31:36;13.20;91.60
80706;DHT22;70229;48.010;7.852;2024-02-21T12:34:02;13.20;91.90
80706;DHT22;70229;48.010;7.852;2024-02-21T12:36:27;14.10;91.00
80706;DHT22;70229;48.010;7.852;2024-02-21T12:38:53;13.30;88.40
80706;DHT22;70229;48.010;7.852;2024-02-21T12:41:18;13.30;88.40
80706;DHT22;70229;48.010;7.852;2024-02-21T12:43:44;13.30;87.70
80706;DHT22;70229;48.010;7.852;2024-02-21T12:46:09;13.30;87.20
80706;DHT22;70229;48.010;7.852;2024-02-21T12:48:35;13.20;86.50
80706;DHT22;70229;48.010;7.852;2024-02-21T12:51:00;13.40;86.80
80706;DHT22;70229;48.010;7.852;2024-02-21T12:53:26;13.40;84.70
80706;DHT22;70229;48.010;7.852;2024-02-21T12:55:52;13.50;85.00
80706;DHT22;70229;48.010;7.852;2024-02-21T12:58:17;13.50;84.60
80706;DHT22;70229;48.010;7.852;2024-02-21T13:00:43;13.50;83.00
80706;DHT22;70229;48.010;7.852;2024-02-21T13:03:08;13.50;81.90
80706;DHT22;70229;48.010;7.852;2024-02-21T13:05:38;13.40;81.80
80706;DHT22;70229;48.010;7.852;2024-02-21T13:08:08;13.50;82.60
80706;DHT22;70229;48.010;7.852;2024-02-21T13:10:34;13.60;80.40
80706;DHT22;70229;48.010;7.852;2024-02-21T13:13:00;13.70;79.90
80706;DHT22;70229;48.010;7.852;2024-02-21T13:15:26;13.70;80.40
80706;DHT22;70229;48.010;7.852;2024-02-21T13:17:53;13.60;79.90
80706;DHT22;70229;48.010;7.852;2024-02-21T13:20:19;13.60;79.70
80706;DHT22;70229;48.010;7.852;2024-02-21T13:22:45;13.60;80.80
80706;DHT22;70229;48.010;7.852;2024-02-21T13:25:10;13.60;79.80
80706;DHT22;70229;48.010;7.852;2024-02-21T13:27:40;13.50;79.30
80706;DHT22;70229;48.010;7.852;2024-02-21T13:30:06;13.60;80.80
80706;DHT22;70229;48.010;7.852;2024-02-21T13:32:34;13.40;82.10
80706;DHT22;70229;48.010;7.852;2024-02-21T13:34:59;13.50;82.30
80706;DHT22;70229;48.010;7.852;2024-02-21T13:37:26;13.40;84.30
80706;DHT22;70229;48.010;7.852;2024-02-21T13:39:52;13.40;85.50
80706;DHT22;70229;48.010;7.852;2024-02-21T13:42:19;13.30;86.30
80706;DHT22;70229;48.010;7.852;2024-02-21T13:44:45;13.40;87.70
80706;DHT22;70229;48.010;7.852;2024-02-21T13:47:12;13.20;86.70
80706;DHT22;70229;48.010;7.852;2024-02-21T13:49:39;13.20;87.40
80706;DHT22;70229;48.010;7.852;2024-02-21T13:52:05;13.10;88.20
80706;DHT22;70229;48.010;7.852;2024-02-21T13:54:30;13.10;87.80
80706;DHT22;70229;48.010;7.852;2024-02-21T13:56:56;12.90;90.30
80706;DHT22;70229;48.010;7.852;2024-02-21T13:59:21;13.10;90.90
80706;DHT22;70229;48.010;7.852;2024-02-21T14:01:47;13.10;91.50
80706;DHT22;70229;48.010;7.852;2024-02-21T14:04:12;13.10;91.30
80706;DHT22;70229;48.010;7.852;2024-02-21T14:06:38;12.90;91.60
80706;DHT22;70229;48.010;7.852;2024-02-21T14:09:09;12.90;92.60
80706;DHT22;70229;48.010;7.852;2024-02-21T14:11:35;12.90;92.60
80706;DHT22;70229;48.010;7.852;2024-02-21T14:14:01;13.10;92.60
80706;DHT22;70229;48.010;7.852;2024-02-21T14:16:26;13.10;91.80
80706;DHT22;70229;48.010;7.852;2024-02-21T14:18:52;13.20;92.00
80706;DHT22;70229;48.010;7.852;2024-02-21T14:21:19;13.20;91.50
80706;DHT22;70229;48.010;7.852;2024-02-21T14:23:45;13.40;91.80
80706;DHT22;70229;48.010;7.852;2024-02-21T14:26:10;13.00;90.80
80706;DHT22;70229;48.010;7.852;2024-02-21T14:28:37;12.90;91.30
80706;DHT22;70229;48.010;7.852;2024-02-21T14:31:03;12.90;91.60
80706;DHT22;70229;48.010;7.852;2024-02-21T14:33:31;13.00;92.00
80706;DHT22;70229;48.010;7.852;2024-02-21T14:35:56;12.90;92.10
80706;DHT22;70229;48.010;7.852;2024-02-21T14:38:22;13.30;91.90
80706;DHT22;70229;48.010;7.852;2024-02-21T14:40:48;12.90;91.00
80706;DHT22;70229;48.010;7.852;2024-02-21T14:43:14;13.00;91.20
80706;DHT22;70229;48.010;7.852;2024-02-21T14:45:40;13.10;90.50
80706;DHT22;70229;48.010;7.852;2024-02-21T14:48:05;13.10;90.10
80706;DHT22;70229;48.010;7.852;2024-02-21T14:50:31;13.20;87.20
80706;DHT22;70229;48.010;7.852;2024-02-21T14:52:57;13.30;87.20
80706;DHT22;70229;48.010;7.852;2024-02-21T14:55:22;14.00;87.10
80706;DHT22;70229;48.010;7.852;2024-02-21T14:57:49;14.20;87.00
80706;DHT22;70229;48.010;7.852;2024-02-21T15:00:15;13.40;86.50
80706;DHT22;70229;48.010;7.852;2024-02-21T15:02:41;13.20;85.90
80706;DHT22;70229;48.010;7.852;2024-02-21T15:05:07;14.30;85.70
80706;DHT22;70229;48.010;7.852;2024-02-21T15:07:33;13.30;83.20
80706;DHT22;70229;48.010;7.852;2024-02-21T15:09:58;14.30;81.20
80706;DHT22;70229;48.010;7.852;2024-02-21T15:12:24;14.10;76.80
80706;DHT22;70229;48.010;7.852;2024-02-21T15:14:50;13.40;78.00
80706;DHT22;70229;48.010;7.852;2024-02-21T15:17:17;15.10;77.90
80706;DHT22;70229;48.010;7.852;2024-02-21T15:19:44;13.50;76.10
80706;DHT22;70229;48.010;7.852;2024-02-21T15:22:12;14.70;76.90
80706;DHT22;70229;48.010;7.852;2024-02-21T15:24:42;13.60;72.10
80706;DHT22;70229;48.010;7.852;2024-02-21T15:27:08;13.60;72.50
80706;DHT22;70229;48.010;7.852;2024-02-21T15:29:35;14.60;71.60
80706;DHT22;70229;48.010;7.852;2024-02-21T15:32:03;13.70;69.10
80706;DHT22;70229;48.010;7.852;2024-02-21T15:34:29;13.70;66.80
80706;DHT22;70229;48.010;7.852;2024-02-21T15:36:54;13.70;65.00
80706;DHT22;70229;48.010;7.852;2024-02-21T15:39:20;14.20;65.50
80706;DHT22;70229;48.010;7.852;2024-02-21T15:41:45;14.00;64.20
80706;DHT22;70229;48.010;7.852;2024-02-21T15:44:11;14.90;64.70
80706;DHT22;70229;48.010;7.852;2024-02-21T15:46:36;14.00;63.20
80706;DHT22;70229;48.010;7.852;2024-02-21T15:49:05;13.70;63.80
80706;DHT22;70229;48.010;7.852;2024-02-21T15:51:31;13.70;64.10
80706;DHT22;70229;48.010;7.852;2024-02-21T15:53:58;13.60;64.60